Time;durP1;ratioP1;P1;durP2;ratioP2;P2;SDS_P1;SDS_P2;PMS_P1;PMS_P2;Temp;Humidity;BMP_temperature;BMP_pressure;BME280_temperature;BME280_humidity;BME280_pressure;Samples;Min_cycle;Max_cycle;Signal;HPM_P1;HPM_P2
2024/03/20 00:00:12;;;;;;;32.22;20.55;;;7.20;96.80;;;;;;5019578;28;20053;-74
2024/03/20 00:02:40;;;;;;;33.35;21.70;;;7.20;97.00;;;;;;5019449;28;20056;-74
2024/03/20 00:05:07;;;;;;;35.28;20.95;;;7.20;96.20;;;;;;5041241;28;20049;-73
2024/03/20 00:07:33;;;;;;;42.30;24.58;;;7.30;96.00;;;;;;5036448;28;20057;-73
2024/03/20 00:09:59;;;;;;;42.15;23.92;;;7.20;94.80;;;;;;5023887;28;20488;-74
2024/03/20 00:12:28;;;;;;;36.08;22.05;;;7.30;94.70;;;;;;5039879;28;20052;-74
2024/03/20 00:14:56;;;;;;;34.90;22.35;;;7.30;94.00;;;;;;5020846;28;20049;-74
2024/03/20 00:17:22;;;;;;;37.05;22.85;;;7.30;92.90;;;;;;5017000;28;20400;-74
2024/03/20 00:19:50;;;;;;;35.13;21.33;;;7.30;92.00;;;;;;5018118;28;20131;-73
2024/03/20 00:22:17;;;;;;;37.67;23.17;;;7.30;91.00;;;;;;5017414;28;20061;-73
2024/03/20 00:24:45;;;;;;;34.80;22.27;;;7.30;90.50;;;;;;5048539;28;20135;-74
2024/03/20 00:27:11;;;;;;;35.20;21.83;;;7.30;90.50;;;;;;5014440;28;20057;-74
2024/03/20 00:29:37;;;;;;;34.47;21.58;;;7.30;90.40;;;;;;5037915;28;20045;-74
2024/03/20 00:32:05;;;;;;;36.10;22.85;;;7.30;90.10;;;;;;5031433;28;20392;-74
2024/03/20 00:34:31;;;;;;;33.58;21.65;;;7.30;89.70;;;;;;5046994;28;20053;-74
2024/03/20 00:36:57;;;;;;;35.70;22.10;;;7.30;89.00;;;;;;5044898;28;20099;-74
2024/03/20 00:39:25;;;;;;;32.42;21.17;;;7.30;88.20;;;;;;5027816;28;20064;-73
2024/03/20 00:41:52;;;;;;;31.85;20.73;;;7.40;88.10;;;;;;5043214;28;20076;-73
2024/03/20 00:44:21;;;;;;;31.80;20.73;;;7.40;89.00;;;;;;5074293;28;20056;-73
2024/03/20 00:46:46;;;;;;;35.55;21.63;;;7.40;89.30;;;;;;5039176;28;20049;-74
2024/03/20 00:49:12;;;;;;;34.65;21.60;;;7.40;90.00;;;;;;5028393;28;20060;-73
2024/03/20 00:51:40;;;;;;;32.38;19.80;;;7.40;90.30;;;;;;5041615;28;20414;-74
2024/03/20 00:54:06;;;;;;;35.53;22.23;;;7.40;90.00;;;;;;5024096;28;20054;-74
2024/03/20 00:56:32;;;;;;;33.97;21.25;;;7.40;88.90;;;;;;5022091;28;20111;-74
2024/03/20 00:59:00;;;;;;;34.92;21.60;;;7.40;86.90;;;;;;5020971;28;20079;-73
2024/03/20 01:01:26;;;;;;;29.92;20.88;;;7.30;85.30;;;;;;5016875;28;20050;-73
2024/03/20 01:03:52;;;;;;;38.08;20.75;;;7.30;84.50;;;;;;5068375;28;20057;-74
2024/03/20 01:06:18;;;;;;;32.78;19.58;;;7.30;82.80;;;;;;5034945;28;20442;-74
2024/03/20 01:08:44;;;;;;;32.15;20.33;;;7.30;84.00;;;;;;5049796;28;20418;-74
2024/03/20 01:11:10;;;;;;;33.05;20.70;;;7.20;84.20;;;;;;5034223;28;20045;-74
2024/03/20 01:13:36;;;;;;;35.85;21.10;;;7.20;84.40;;;;;;5033756;28;20053;-74
2024/03/20 01:16:02;;;;;;;31.23;21.17;;;7.10;86.00;;;;;;5042940;28;20851;-73
2024/03/20 01:18:28;;;;;;;33.72;20.60;;;7.20;88.00;;;;;;5041095;28;20080;-74
2024/03/20 01:20:54;;;;;;;36.13;21.00;;;7.20;89.90;;;;;;5074259;28;20122;-74
2024/03/20 01:23:20;;;;;;;31.90;20.88;;;7.20;90.70;;;;;;5025958;28;20495;-74
2024/03/20 01:25:46;;;;;;;33.42;20.58;;;7.20;91.10;;;;;;5044314;28;20057;-73
2024/03/20 01:28:12;;;;;;;33.97;21.70;;;7.20;91.60;;;;;;5044958;28;20467;-73
2024/03/20 01:30:40;;;;;;;34.25;21.60;;;7.20;91.90;;;;;;5044209;28;20084;-74
2024/03/20 01:33:06;;;;;;;33.15;21.60;;;7.20;92.40;;;;;;5042213;28;20041;-74
2024/03/20 01:35:32;;;;;;;38.20;23.35;;;7.30;93.10;;;;;;5037510;28;20175;-74
2024/03/20 01:37:58;;;;;;;36.15;22.02;;;7.20;93.50;;;;;;5028382;28;20391;-74
2024/03/20 01:40:24;;;;;;;34.65;22.83;;;7.20;93.90;;;;;;5035253;28;20412;-75
2024/03/20 01:42:56;;;;;;;37.33;22.55;;;7.20;94.20;;;;;;5036434;28;20049;-74
2024/03/20 01:45:22;;;;;;;33.33;21.55;;;7.20;94.70;;;;;;5035132;28;20049;-74
2024/03/20 01:47:48;;;;;;;35.55;21.77;;;7.20;95.90;;;;;;5051181;28;20049;-73
2024/03/20 01:50:17;;;;;;;34.30;20.90;;;7.20;96.70;;;;;;5033302;28;20462;-73
2024/03/20 01:52:54;;;;;;;31.60;20.80;;;7.20;97.00;;;;;;5034908;28;20049;-74
2024/03/20 01:55:24;;;;;;;43.35;23.58;;;7.10;97.50;;;;;;5039935;28;20052;-73
2024/03/20 01:57:52;;;;;;;42.63;24.40;;;7.00;97.90;;;;;;5038499;28;20053;-74
2024/03/20 02:00:23;;;;;;;44.50;25.20;;;7.00;98.00;;;;;;5027383;28;20056;-74
2024/03/20 02:02:50;;;;;;;45.20;25.63;;;6.90;98.10;;;;;;5026217;28;20056;-74
2024/03/20 02:05:17;;;;;;;44.17;25.90;;;6.90;98.10;;;;;;5041504;28;20053;-74
2024/03/20 02:07:43;;;;;;;46.45;26.52;;;6.90;97.90;;;;;;5073343;28;20057;-74
2024/03/20 02:10:10;;;;;;;48.20;26.48;;;7.00;98.00;;;;;;5022562;28;20096;-74
2024/03/20 02:12:36;;;;;;;46.50;26.88;;;7.00;97.90;;;;;;5020994;28;20050;-74
2024/03/20 02:15:08;;;;;;;49.22;27.58;;;7.00;97.90;;;;;;5030450;28;20052;-74
2024/03/20 02:17:41;;;;;;;50.92;27.77;;;6.90;98.10;;;;;;5050107;28;20053;-73
2024/03/20 02:20:11;;;;;;;55.33;29.33;;;6.90;98.50;;;;;;5035233;28;20056;-74
2024/03/20 02:22:43;;;;;;;54.65;28.65;;;6.90;98.70;;;;;;5034800;28;20056;-74
2024/03/20 02:25:17;;;;;;;60.47;29.75;;;6.90;99.00;;;;;;5033892;28;20126;-74
2024/03/20 02:27:46;;;;;;;63.75;30.02;;;6.90;99.00;;;;;;5030280;28;20045;-74
2024/03/20 02:30:15;;;;;;;59.20;28.23;;;6.90;99.10;;;;;;5020473;28;20470;-74
2024/03/20 02:32:41;;;;;;;53.72;28.52;;;6.90;99.20;;;;;;5025527;28;20056;-74
2024/03/20 02:35:08;;;;;;;53.67;29.02;;;6.90;99.20;;;;;;5078164;28;20049;-74
2024/03/20 02:37:34;;;;;;;51.17;27.67;;;6.90;99.20;;;;;;5027852;28;20064;-74
2024/03/20 02:40:03;;;;;;;49.20;26.83;;;6.90;99.40;;;;;;5025335;28;20449;-73
2024/03/20 02:42:29;;;;;;;54.08;27.27;;;6.80;99.40;;;;;;5041638;28;20061;-73
2024/03/20 02:44:55;;;;;;;51.95;26.30;;;6.80;99.50;;;;;;5023407;28;20470;-74
2024/03/20 02:47:23;;;;;;;52.03;27.08;;;6.90;99.20;;;;;;5023663;28;20399;-74
2024/03/20 02:49:52;;;;;;;51.85;26.20;;;6.90;99.10;;;;;;5047128;28;20052;-74
2024/03/20 02:52:19;;;;;;;48.55;25.60;;;7.00;99.10;;;;;;5048597;28;20057;-74
2024/03/20 02:54:45;;;;;;;46.15;25.58;;;7.00;99.20;;;;;;5038427;28;20065;-74
2024/03/20 02:57:11;;;;;;;49.25;28.65;;;6.90;99.20;;;;;;5016745;28;20714;-74
2024/03/20 02:59:39;;;;;;;52.35;26.85;;;6.90;99.20;;;;;;5016113;28;20050;-74
2024/03/20 03:02:05;;;;;;;48.20;27.33;;;6.90;99.30;;;;;;5069117;28;20046;-74
2024/03/20 03:04:31;;;;;;;43.90;24.17;;;6.90;99.60;;;;;;5031813;28;20056;-74
2024/03/20 03:06:59;;;;;;;42.03;23.48;;;6.90;99.60;;;;;;5047805;28;20061;-74
2024/03/20 03:09:26;;;;;;;43.40;24.55;;;6.80;99.80;;;;;;5029604;28;20115;-74
2024/03/20 03:11:52;;;;;;;40.65;23.67;;;6.80;99.90;;;;;;5024020;28;20049;-74
2024/03/20 03:14:18;;;;;;;35.72;21.77;;;6.70;99.90;;;;;;5023088;28;20059;-73
2024/03/20 03:16:46;;;;;;;33.22;20.30;;;6.70;99.90;;;;;;5023707;28;20053;-74
2024/03/20 03:19:17;;;;;;;31.85;19.52;;;6.70;99.90;;;;;;5022400;28;20075;-74
2024/03/20 03:21:43;;;;;;;33.25;19.98;;;6.60;99.90;;;;;;5039895;28;20057;-73
2024/03/20 03:24:11;;;;;;;29.85;19.25;;;6.60;99.90;;;;;;5037998;28;20058;-74
2024/03/20 03:26:39;;;;;;;33.33;21.33;;;6.50;99.90;;;;;;5020637;28;20059;-73
2024/03/20 03:29:05;;;;;;;30.67;20.45;;;6.50;99.90;;;;;;5069194;28;20076;-74
2024/03/20 03:31:32;;;;;;;31.55;20.52;;;6.60;99.90;;;;;;5020857;28;20053;-73
2024/03/20 03:34:01;;;;;;;32.28;19.45;;;6.60;99.90;;;;;;5032994;28;20049;-74
2024/03/20 03:36:31;;;;;;;34.60;21.10;;;6.70;99.90;;;;;;5029502;28;20075;-74
2024/03/20 03:39:00;;;;;;;33.55;20.27;;;6.70;99.90;;;;;;5015816;28;20049;-73
2024/03/20 03:41:26;;;;;;;34.50;21.63;;;6.70;99.90;;;;;;5017385;28;20068;-73
2024/03/20 03:43:52;;;;;;;37.55;21.95;;;6.70;99.90;;;;;;5018282;28;20046;-74
2024/03/20 03:46:18;;;;;;;38.05;22.10;;;6.60;99.90;;;;;;5019004;28;20059;-74
2024/03/20 03:48:44;;;;;;;33.10;21.02;;;6.60;99.90;;;;;;5022938;28;20406;-74
2024/03/20 03:51:13;;;;;;;33.22;21.20;;;6.60;99.90;;;;;;5042886;28;20053;-74
2024/03/20 03:53:41;;;;;;;34.70;20.55;;;6.60;99.90;;;;;;5042699;28;20049;-74
2024/03/20 03:56:07;;;;;;;32.33;19.90;;;6.70;99.90;;;;;;5023328;28;20111;-73
2024/03/20 03:58:33;;;;;;;30.85;19.33;;;6.70;99.90;;;;;;5025449;28;20057;-73
2024/03/20 04:01:00;;;;;;;27.67;18.33;;;6.70;99.90;;;;;;5043172;28;20054;-74
2024/03/20 04:03:30;;;;;;;29.83;19.05;;;6.70;99.90;;;;;;5055020;28;20408;-73
2024/03/20 04:05:58;;;;;;;29.25;18.70;;;6.70;99.90;;;;;;5024346;28;20107;-74
2024/03/20 04:08:24;;;;;;;26.35;18.27;;;6.70;99.90;;;;;;5017281;28;20175;-73
2024/03/20 04:10:53;;;;;;;25.65;18.20;;;6.70;99.90;;;;;;5016328;28;20061;-73
2024/03/20 04:13:21;;;;;;;32.70;20.80;;;6.70;99.90;;;;;;5035525;28;20057;-74
2024/03/20 04:15:47;;;;;;;27.20;17.67;;;6.80;99.90;;;;;;5050164;28;20057;-75
2024/03/20 04:18:13;;;;;;;29.48;17.65;;;6.80;99.90;;;;;;5032336;28;20107;-73
2024/03/20 04:20:39;;;;;;;26.20;17.50;;;6.80;99.90;;;;;;5017494;28;20058;-74
2024/03/20 04:23:07;;;;;;;29.70;18.58;;;6.70;99.90;;;;;;5016767;28;20057;-74
2024/03/20 04:25:36;;;;;;;26.77;18.35;;;6.60;99.90;;;;;;5019257;28;20063;-74
2024/03/20 04:28:04;;;;;;;26.08;18.05;;;6.60;99.90;;;;;;5040055;28;20045;-73
2024/03/20 04:30:30;;;;;;;29.45;19.02;;;6.60;99.90;;;;;;5036098;28;20847;-73
2024/03/20 04:32:58;;;;;;;33.97;20.60;;;6.60;99.90;;;;;;5023240;28;20052;-73
2024/03/20 04:35:24;;;;;;;36.95;20.67;;;6.70;99.90;;;;;;5022127;28;20519;-73
2024/03/20 04:37:51;;;;;;;35.53;21.58;;;6.70;99.90;;;;;;5057233;28;20053;-74
2024/03/20 04:40:17;;;;;;;43.58;23.38;;;6.70;99.90;;;;;;5043750;28;20056;-74
2024/03/20 04:42:43;;;;;;;44.50;24.73;;;6.70;99.90;;;;;;5045565;28;20104;-74
2024/03/20 04:45:12;;;;;;;48.15;25.85;;;6.70;99.90;;;;;;5044251;28;20437;-73
2024/03/20 04:47:39;;;;;;;42.47;24.48;;;6.60;99.90;;;;;;5029760;28;20049;-73
2024/03/20 04:50:11;;;;;;;46.47;24.42;;;6.60;99.90;;;;;;5020848;28;20049;-73
2024/03/20 04:52:40;;;;;;;44.08;23.50;;;6.60;99.90;;;;;;5024882;28;20389;-74
2024/03/20 04:55:07;;;;;;;47.55;24.98;;;6.60;99.90;;;;;;5015399;28;20064;-73
2024/03/20 04:57:36;;;;;;;44.33;25.17;;;6.60;99.90;;;;;;5033174;28;20080;-74
2024/03/20 05:00:08;;;;;;;46.83;24.73;;;6.60;99.90;;;;;;5012133;28;20191;-74
2024/03/20 05:02:34;;;;;;;37.95;22.05;;;6.60;99.90;;;;;;5035673;28;20073;-74
2024/03/20 05:05:00;;;;;;;36.13;22.10;;;6.60;99.90;;;;;;5035773;28;20045;-73
2024/03/20 05:07:25;;;;;;;36.95;21.52;;;6.60;99.90;;;;;;5040272;28;20518;-73
2024/03/20 05:09:52;;;;;;;38.95;21.20;;;6.60;99.90;;;;;;5041214;28;20061;-74
2024/03/20 05:12:20;;;;;;;35.28;19.42;;;6.60;99.90;;;;;;5022818;28;20850;-73
2024/03/20 05:14:46;;;;;;;29.55;18.60;;;6.60;99.90;;;;;;5017771;28;20722;-73
2024/03/20 05:17:14;;;;;;;27.48;17.58;;;6.60;99.90;;;;;;5037021;28;20068;-73
2024/03/20 05:19:40;;;;;;;36.88;18.13;;;6.60;99.90;;;;;;5036902;28;20060;-73
2024/03/20 05:22:06;;;;;;;29.08;17.67;;;6.50;99.90;;;;;;5025505;28;20052;-73
2024/03/20 05:24:32;;;;;;;31.25;18.70;;;6.50;99.90;;;;;;5030647;28;20084;-73
2024/03/20 05:26:58;;;;;;;28.10;18.42;;;6.50;99.90;;;;;;5017193;28;20458;-73
2024/03/20 05:29:24;;;;;;;33.15;19.52;;;6.50;99.90;;;;;;5036178;28;20037;-73
2024/03/20 05:31:50;;;;;;;27.75;18.02;;;6.50;99.90;;;;;;5018736;28;20056;-73
2024/03/20 05:34:16;;;;;;;28.88;18.20;;;6.50;99.90;;;;;;5017179;28;20052;-76
2024/03/20 05:36:41;;;;;;;25.88;17.10;;;6.50;99.90;;;;;;5073560;28;20087;-74
2024/03/20 05:39:08;;;;;;;31.67;19.08;;;6.50;99.90;;;;;;5038698;28;20057;-74
2024/03/20 05:41:34;;;;;;;29.10;17.55;;;6.50;99.90;;;;;;5047396;28;20053;-74
2024/03/20 05:44:00;;;;;;;30.33;18.48;;;6.40;99.90;;;;;;5026875;28;20064;-80
2024/03/20 05:46:26;;;;;;;32.53;19.38;;;6.40;99.90;;;;;;5026902;28;20084;-74
2024/03/20 05:48:52;;;;;;;32.97;19.95;;;6.40;99.90;;;;;;5021980;28;20069;-75
2024/03/20 05:51:18;;;;;;;37.17;22.20;;;6.50;99.90;;;;;;5021985;28;20049;-75
2024/03/20 05:53:44;;;;;;;37.75;20.95;;;6.50;99.90;;;;;;5029523;28;20057;-74
2024/03/20 05:56:10;;;;;;;36.95;20.15;;;6.50;99.90;;;;;;5047166;28;20396;-74
2024/03/20 05:58:36;;;;;;;33.33;20.13;;;6.60;99.90;;;;;;5026872;28;20052;-74
2024/03/20 06:01:02;;;;;;;30.45;19.45;;;6.60;99.90;;;;;;5032940;28;20049;-74
2024/03/20 06:03:30;;;;;;;38.03;22.17;;;6.60;99.90;;;;;;5050432;28;20053;-75
2024/03/20 06:05:56;;;;;;;44.95;24.77;;;6.60;99.90;;;;;;5036345;28;20049;-74
2024/03/20 06:08:22;;;;;;;37.58;19.27;;;6.50;99.90;;;;;;5052445;28;20053;-74
2024/03/20 06:10:51;;;;;;;29.95;18.08;;;6.60;99.90;;;;;;5032715;28;20050;-80
2024/03/20 06:13:17;;;;;;;28.35;18.73;;;6.50;99.90;;;;;;5043895;28;20064;-79
2024/03/20 06:15:43;;;;;;;33.83;18.73;;;6.50;99.90;;;;;;5044781;28;20049;-80
2024/03/20 06:18:09;;;;;;;37.05;17.77;;;6.50;99.90;;;;;;5046910;28;20049;-80
2024/03/20 06:20:37;;;;;;;32.10;18.45;;;6.30;99.90;;;;;;5027793;28;20400;-79
2024/03/20 06:23:03;;;;;;;37.90;21.90;;;6.20;99.90;;;;;;5026758;28;20053;-80
2024/03/20 06:25:30;;;;;;;39.08;21.75;;;6.20;99.90;;;;;;5026650;28;20112;-80
2024/03/20 06:27:56;;;;;;;38.22;22.23;;;6.30;99.90;;;;;;5021106;28;20049;-80
2024/03/20 06:30:25;;;;;;;40.08;22.77;;;6.30;99.90;;;;;;5043170;28;20053;-80
2024/03/20 06:32:51;;;;;;;41.65;22.50;;;6.40;99.90;;;;;;5024412;28;20048;-81
2024/03/20 06:35:17;;;;;;;46.75;22.85;;;6.40;99.90;;;;;;5027572;28;20064;-80
2024/03/20 06:37:43;;;;;;;35.67;21.50;;;6.50;99.90;;;;;;5035132;28;20132;-81
2024/03/20 06:40:11;;;;;;;33.67;20.77;;;6.50;99.90;;;;;;5040445;28;20054;-80
2024/03/20 06:42:37;;;;;;;35.90;21.20;;;6.60;99.90;;;;;;5023032;28;20064;-81
2024/03/20 06:45:08;;;;;;;44.58;22.88;;;6.60;99.90;;;;;;5023572;28;20064;-80
2024/03/20 06:47:35;;;;;;;39.40;23.65;;;6.60;99.90;;;;;;5034610;28;20049;-80
2024/03/20 06:50:02;;;;;;;39.08;20.90;;;6.60;99.90;;;;;;5025231;28;20049;-80
2024/03/20 06:52:34;;;;;;;37.00;21.30;;;6.70;99.90;;;;;;5029235;28;20098;-81
2024/03/20 06:55:00;;;;;;;37.95;19.88;;;6.70;99.90;;;;;;5046760;28;20064;-80
2024/03/20 06:57:26;;;;;;;38.72;20.92;;;6.70;99.90;;;;;;5039802;28;20103;-80
2024/03/20 06:59:52;;;;;;;38.60;20.75;;;6.70;99.90;;;;;;5024561;28;20053;-80
2024/03/20 07:02:19;;;;;;;46.10;20.05;;;6.60;99.90;;;;;;5026767;28;20064;-80
2024/03/20 07:04:47;;;;;;;34.00;20.05;;;6.60;99.90;;;;;;5023487;28;20053;-80
2024/03/20 07:07:15;;;;;;;33.85;19.80;;;6.60;99.90;;;;;;5036261;28;20107;-80
2024/03/20 07:09:42;;;;;;;34.92;19.85;;;6.60;99.90;;;;;;5037195;28;20522;-80
2024/03/20 07:12:08;;;;;;;39.08;21.65;;;6.60;99.90;;;;;;5040161;28;20060;-81
2024/03/20 07:14:36;;;;;;;39.67;22.90;;;6.70;99.90;;;;;;5040349;28;20056;-80
2024/03/20 07:17:05;;;;;;;38.95;21.95;;;6.70;99.90;;;;;;5031778;28;20049;-80
2024/03/20 07:19:31;;;;;;;33.97;20.17;;;6.70;99.90;;;;;;5022038;28;20053;-80
2024/03/20 07:21:57;;;;;;;37.33;21.92;;;6.80;99.90;;;;;;5019715;28;20049;-78
2024/03/20 07:24:23;;;;;;;44.00;22.52;;;6.80;99.90;;;;;;5023052;28;20582;-81
2024/03/20 07:26:49;;;;;;;35.83;21.73;;;6.80;99.90;;;;;;5047731;28;20051;-80
2024/03/20 07:29:15;;;;;;;36.13;21.17;;;6.80;99.90;;;;;;5029866;28;20389;-80
2024/03/20 07:31:41;;;;;;;40.00;21.00;;;6.80;99.90;;;;;;5022997;28;20075;-80
2024/03/20 07:34:07;;;;;;;36.05;20.63;;;6.80;99.90;;;;;;5053212;28;20056;-80
2024/03/20 07:36:33;;;;;;;39.47;19.92;;;6.80;99.90;;;;;;5044948;28;20053;-80
2024/03/20 07:39:08;;;;;;;34.05;19.80;;;6.80;99.90;;;;;;5023784;28;20489;-80
2024/03/20 07:41:37;;;;;;;30.25;19.08;;;6.70;99.90;;;;;;5038015;28;20129;-79
2024/03/20 07:44:03;;;;;;;32.03;18.95;;;6.70;99.90;;;;;;5041761;28;20061;-80
2024/03/20 07:46:29;;;;;;;36.45;21.20;;;6.80;99.90;;;;;;5038409;28;20057;-80
2024/03/20 07:48:54;;;;;;;32.67;20.08;;;6.80;99.90;;;;;;5040103;28;20044;-80
2024/03/20 07:51:21;;;;;;;29.95;19.10;;;6.90;99.90;;;;;;5024919;28;20060;-80
2024/03/20 07:53:47;;;;;;;33.75;19.52;;;7.00;99.90;;;;;;5017472;28;20054;-81
2024/03/20 07:56:16;;;;;;;35.72;21.17;;;7.00;99.90;;;;;;5016767;28;20065;-81
2024/03/20 07:58:42;;;;;;;34.80;20.27;;;7.00;99.90;;;;;;5024313;28;20054;-80
2024/03/20 08:01:11;;;;;;;32.78;19.85;;;6.90;99.90;;;;;;5075822;28;20411;-81
2024/03/20 08:03:39;;;;;;;40.28;21.02;;;6.90;99.90;;;;;;5028803;28;20064;-80
2024/03/20 08:06:05;;;;;;;32.70;20.00;;;7.00;99.90;;;;;;5021601;28;20050;-80
2024/03/20 08:08:31;;;;;;;31.38;20.23;;;7.00;99.90;;;;;;5021742;28;20057;-80
2024/03/20 08:10:57;;;;;;;28.13;18.00;;;7.10;99.90;;;;;;5029249;28;20053;-74
2024/03/20 08:13:24;;;;;;;30.38;18.30;;;7.20;99.90;;;;;;5044506;28;20148;-75
2024/03/20 08:15:50;;;;;;;30.00;18.40;;;7.20;99.90;;;;;;5025987;28;20071;-74
2024/03/20 08:18:16;;;;;;;28.73;17.48;;;7.20;99.90;;;;;;5024201;28;20053;-74
2024/03/20 08:20:42;;;;;;;27.13;17.23;;;7.30;99.90;;;;;;5024189;28;20107;-74
2024/03/20 08:23:08;;;;;;;27.88;17.13;;;7.40;99.90;;;;;;5021733;28;20053;-75
2024/03/20 08:25:35;;;;;;;27.90;18.02;;;7.50;99.90;;;;;;5022395;28;20057;-75
2024/03/20 08:28:06;;;;;;;23.92;16.10;;;7.50;99.50;;;;;;5013439;28;20057;-75
2024/03/20 08:30:32;;;;;;;25.95;16.45;;;7.60;98.90;;;;;;5029037;28;20049;-74
2024/03/20 08:32:58;;;;;;;25.27;15.85;;;7.70;98.80;;;;;;5033429;28;20071;-74
2024/03/20 08:35:24;;;;;;;26.75;16.27;;;7.70;98.50;;;;;;5064032;28;20061;-75
2024/03/20 08:37:50;;;;;;;24.70;16.02;;;7.70;97.90;;;;;;5049564;28;20061;-74
2024/03/20 08:40:19;;;;;;;25.80;16.42;;;7.80;97.80;;;;;;5026144;28;20446;-75
2024/03/20 08:42:46;;;;;;;22.02;15.38;;;7.90;98.80;;;;;;5027722;28;20056;-75
2024/03/20 08:45:13;;;;;;;23.05;14.95;;;7.90;98.30;;;;;;5030320;28;20049;-75
2024/03/20 08:47:39;;;;;;;18.98;13.23;;;8.00;97.60;;;;;;5045721;28;20045;-74
2024/03/20 08:50:08;;;;;;;24.15;13.98;;;7.80;97.20;;;;;;5027593;28;20056;-74
2024/03/20 08:52:36;;;;;;;17.83;13.05;;;7.80;97.70;;;;;;5026781;28;20050;-74
2024/03/20 08:55:02;;;;;;;19.80;13.45;;;8.00;97.50;;;;;;5041307;28;20060;-74
2024/03/20 08:57:28;;;;;;;19.30;13.13;;;8.00;97.10;;;;;;5023015;28;20061;-75
2024/03/20 08:59:57;;;;;;;20.38;13.93;;;8.00;96.60;;;;;;5023409;28;20050;-75
2024/03/20 09:02:23;;;;;;;23.80;14.90;;;8.10;96.80;;;;;;5035239;28;20064;-74
2024/03/20 09:04:51;;;;;;;20.75;14.10;;;8.20;96.90;;;;;;5019442;28;20048;-75
2024/03/20 09:07:17;;;;;;;22.55;15.52;;;8.30;96.30;;;;;;5020134;28;20057;-75
2024/03/20 09:09:48;;;;;;;23.13;14.98;;;8.30;96.60;;;;;;5021373;28;20054;-74
2024/03/20 09:12:14;;;;;;;20.80;14.50;;;8.40;96.70;;;;;;5080622;28;20163;-75
2024/03/20 09:14:39;;;;;;;20.85;13.93;;;8.50;96.80;;;;;;5031733;28;20197;-75
2024/03/20 09:17:06;;;;;;;23.00;14.85;;;8.60;96.30;;;;;;5017790;28;20057;-74
2024/03/20 09:19:32;;;;;;;20.45;13.52;;;8.70;95.80;;;;;;5034476;28;20411;-75
2024/03/20 09:22:02;;;;;;;20.08;13.10;;;8.70;95.40;;;;;;5050767;28;20063;-74
2024/03/20 09:24:28;;;;;;;19.88;13.75;;;8.70;94.60;;;;;;5032926;28;20065;-74
2024/03/20 09:26:58;;;;;;;22.08;14.13;;;8.60;93.40;;;;;;5027875;28;20107;-75
2024/03/20 09:29:24;;;;;;;18.95;13.45;;;8.60;95.00;;;;;;5037819;28;20046;-75
2024/03/20 09:31:52;;;;;;;21.33;14.63;;;8.40;94.40;;;;;;5024006;28;20055;-74
2024/03/20 09:34:21;;;;;;;22.60;14.90;;;8.30;95.20;;;;;;5043098;28;20056;-75
2024/03/20 09:36:49;;;;;;;20.65;14.48;;;8.30;94.90;;;;;;5041763;28;20053;-75
2024/03/20 09:39:15;;;;;;;20.67;14.20;;;8.40;96.20;;;;;;5038559;28;20484;-75
2024/03/20 09:41:41;;;;;;;20.60;14.02;;;8.50;96.10;;;;;;5024932;28;20124;-74
2024/03/20 09:44:12;;;;;;;20.40;14.90;;;8.60;94.90;;;;;;5030325;28;20406;-74
2024/03/20 09:46:38;;;;;;;22.40;14.35;;;8.70;94.30;;;;;;5033787;28;20511;-75
2024/03/20 09:49:04;;;;;;;19.13;13.60;;;8.80;95.00;;;;;;5019687;28;20060;-75
2024/03/20 09:51:35;;;;;;;20.52;14.43;;;8.90;94.50;;;;;;5067828;28;20053;-74
2024/03/20 09:54:02;;;;;;;21.67;15.20;;;9.00;94.10;;;;;;5017018;28;20053;-74
2024/03/20 09:56:29;;;;;;;19.83;14.15;;;9.20;93.40;;;;;;5051010;28;20053;-75
2024/03/20 09:58:55;;;;;;;19.73;14.20;;;9.50;93.40;;;;;;5021069;28;20064;-75
2024/03/20 10:01:25;;;;;;;20.95;12.90;;;9.70;92.70;;;;;;5019581;28;20049;-75
2024/03/20 10:03:55;;;;;;;17.80;12.43;;;10.00;91.40;;;;;;5055139;28;20061;-75
2024/03/20 10:06:23;;;;;;;16.63;12.35;;;10.20;90.70;;;;;;5071874;28;20053;-75
2024/03/20 10:08:49;;;;;;;19.25;11.63;;;10.40;89.70;;;;;;5023920;28;20064;-74
2024/03/20 10:11:17;;;;;;;19.55;12.45;;;10.80;85.90;;;;;;5025491;28;20545;-75
2024/03/20 10:13:46;;;;;;;16.55;12.32;;;11.10;86.90;;;;;;5024905;28;20096;-75
2024/03/20 10:16:13;;;;;;;14.65;11.48;;;11.40;82.20;;;;;;5024016;28;20053;-75
2024/03/20 10:18:41;;;;;;;17.15;12.40;;;11.70;79.50;;;;;;5023038;28;20061;-75
2024/03/20 10:21:07;;;;;;;14.90;11.00;;;11.90;76.50;;;;;;5022723;28;20049;-75
2024/03/20 10:23:46;;;;;;;14.95;11.48;;;12.40;75.90;;;;;;5036747;28;20053;-75
2024/03/20 10:26:16;;;;;;;16.95;11.52;;;13.00;71.40;;;;;;5034926;28;20056;-75
2024/03/20 10:28:43;;;;;;;15.10;11.65;;;13.40;70.90;;;;;;5029866;28;20049;-75
2024/03/20 10:31:11;;;;;;;14.35;10.70;;;14.20;69.60;;;;;;5034605;28;20113;-75
2024/03/20 10:33:39;;;;;;;19.13;11.05;;;15.10;65.50;;;;;;5035151;28;20052;-75
2024/03/20 10:36:06;;;;;;;15.57;11.00;;;16.00;59.80;;;;;;5050677;28;20060;-75
2024/03/20 10:38:33;;;;;;;14.75;11.55;;;16.30;57.10;;;;;;5048816;28;20126;-75
2024/03/20 10:41:03;;;;;;;14.23;10.68;;;16.20;58.70;;;;;;5030618;28;20061;-75
2024/03/20 10:43:30;;;;;;;14.88;10.60;;;16.80;59.00;;;;;;5044079;28;20526;-75
2024/03/20 10:46:00;;;;;;;15.88;9.85;;;17.60;55.10;;;;;;5028707;28;20052;-75
2024/03/20 10:48:26;;;;;;;11.27;10.07;;;18.50;54.00;;;;;;5027475;28;20381;-76
2024/03/20 10:50:54;;;;;;;11.20;9.35;;;19.50;50.90;;;;;;5072282;28;20038;-76
2024/03/20 10:53:24;;;;;;;14.70;9.63;;;20.10;50.50;;;;;;5027209;28;20458;-77
2024/03/20 10:55:56;;;;;;;13.35;10.15;;;21.00;49.40;;;;;;5020574;28;20049;-77
2024/03/20 10:58:25;;;;;;;12.02;9.40;;;21.70;46.30;;;;;;5071440;28;20080;-77
2024/03/20 11:00:53;;;;;;;10.80;8.88;;;22.40;46.10;;;;;;5019859;28;20455;-77
2024/03/20 11:03:47;;;;;;;9.88;8.82;;;22.70;45.10;;;;;;5031947;28;20056;-77
2024/03/20 11:06:28;;;;;;;10.95;9.18;;;23.20;42.60;;;;;;5083017;28;20083;-77
2024/03/20 11:08:56;;;;;;;12.25;8.98;;;23.00;43.60;;;;;;5034681;28;20052;-76
2024/03/20 11:11:30;;;;;;;11.43;9.57;;;23.00;43.40;;;;;;5034750;28;20056;-77
2024/03/20 11:14:01;;;;;;;12.00;9.45;;;23.50;43.30;;;;;;5046785;28;20049;-77
2024/03/20 11:16:33;;;;;;;10.38;9.15;;;24.30;42.40;;;;;;5047269;28;20108;-76
2024/03/20 11:19:09;;;;;;;10.77;9.48;;;25.10;41.10;;;;;;5036128;28;20057;-76
2024/03/20 11:21:38;;;;;;;11.25;9.63;;;25.60;38.30;;;;;;5019899;28;20064;-76
2024/03/20 11:24:10;;;;;;;11.45;8.45;;;26.00;37.40;;;;;;5042320;28;20065;-76
2024/03/20 11:26:36;;;;;;;13.10;10.27;;;25.70;38.70;;;;;;5026384;28;20052;-76
2024/03/20 11:29:04;;;;;;;11.48;9.98;;;26.30;38.30;;;;;;5039109;28;20488;-76
2024/03/20 11:31:29;;;;;;;12.40;10.23;;;26.80;38.20;;;;;;5025923;28;20049;-77
2024/03/20 11:33:55;;;;;;;14.63;9.77;;;27.20;37.50;;;;;;5028453;28;20052;-77
2024/03/20 11:36:22;;;;;;;14.73;9.90;;;27.60;36.00;;;;;;5020659;28;20060;-76
2024/03/20 11:38:49;;;;;;;13.13;10.55;;;28.40;35.30;;;;;;5035749;28;20071;-76
2024/03/20 11:41:19;;;;;;;12.10;8.98;;;29.40;33.60;;;;;;5019285;28;20495;-76
2024/03/20 11:43:48;;;;;;;13.07;9.18;;;30.70;32.00;;;;;;5033974;28;20060;-77
2024/03/20 11:46:23;;;;;;;13.10;10.30;;;31.60;30.50;;;;;;5048524;28;20057;-76
2024/03/20 11:48:55;;;;;;;11.20;9.00;;;32.10;29.90;;;;;;5012184;28;20515;-76
2024/03/20 11:51:26;;;;;;;10.43;9.00;;;32.70;28.60;;;;;;5032930;28;20056;-76
2024/03/20 11:53:53;;;;;;;10.05;8.98;;;33.50;27.80;;;;;;5017495;28;20076;-76
2024/03/20 11:56:22;;;;;;;10.82;9.25;;;33.90;27.80;;;;;;5019406;28;20073;-77
2024/03/20 11:58:53;;;;;;;9.88;8.88;;;34.10;26.90;;;;;;5036388;28;20053;-76
2024/03/20 12:01:20;;;;;;;9.85;8.82;;;34.50;27.00;;;;;;5041867;28;20060;-76
2024/03/20 12:03:49;;;;;;;10.18;8.98;;;34.60;27.10;;;;;;5042784;28;20049;-76
2024/03/20 12:06:26;;;;;;;12.88;9.32;;;35.10;26.50;;;;;;5038103;28;20102;-76
2024/03/20 12:09:00;;;;;;;14.43;9.15;;;35.40;26.40;;;;;;5021730;28;20103;-76
2024/03/20 12:11:34;;;;;;;11.85;10.00;;;35.60;26.20;;;;;;5037954;28;20053;-76
2024/03/20 12:14:03;;;;;;;10.98;9.52;;;34.90;26.90;;;;;;5037696;28;20053;-76
2024/03/20 12:16:31;;;;;;;12.63;10.07;;;35.10;26.40;;;;;;5022746;28;20056;-76
2024/03/20 12:18:59;;;;;;;12.45;9.38;;;35.10;26.20;;;;;;5047794;28;20422;-77
2024/03/20 12:21:28;;;;;;;12.75;9.57;;;35.10;26.60;;;;;;5047709;28;20102;-76
2024/03/20 12:23:54;;;;;;;13.00;9.32;;;35.20;26.50;;;;;;5033206;28;20060;-77
2024/03/20 12:26:28;;;;;;;11.98;10.02;;;34.50;27.20;;;;;;5050515;28;20052;-77
2024/03/20 12:28:57;;;;;;;11.75;9.55;;;34.20;27.70;;;;;;5032564;28;20049;-76
2024/03/20 12:31:23;;;;;;;10.85;8.82;;;34.10;27.90;;;;;;5045321;28;20060;-77
2024/03/20 12:33:50;;;;;;;9.18;8.18;;;33.90;27.70;;;;;;5026700;28;20054;-77
2024/03/20 12:36:21;;;;;;;9.70;8.70;;;33.90;27.90;;;;;;5019651;28;20415;-77